createdAt,value
2023-03-21T00:02:33.114Z,31.52
2023-03-21T00:07:26.238Z,32.38
2023-03-21T00:12:21.147Z,25.23
2023-03-21T00:17:16.260Z,30.13
2023-03-21T00:22:09.508Z,28.10
2023-03-21T00:27:29.895Z,33.47
2023-03-21T00:32:17.158Z,28.55
2023-03-21T00:37:33.075Z,27.30
2023-03-21T00:42:27.188Z,23.80
2023-03-21T00:47:21.232Z,26.85
2023-03-21T00:52:22.170Z,27.25
2023-03-21T00:57:29.350Z,25.83
2023-03-21T01:02:29.600Z,30.02
2023-03-21T01:07:24.676Z,27.90
2023-03-21T01:12:17.766Z,27.90
2023-03-21T01:17:10.232Z,28.38
2023-03-21T01:22:04.133Z,25.92
2023-03-21T01:26:57.371Z,23.73
2023-03-21T01:31:50.033Z,23.92
2023-03-21T01:36:43.325Z,22.35
2023-03-21T01:41:44.138Z,22.88
2023-03-21T01:52:23.509Z,24.60
2023-03-21T01:57:25.824Z,23.90
2023-03-21T02:02:25.843Z,24.15
2023-03-21T02:07:37.797Z,24.60
2023-03-21T02:12:33.613Z,26.25
2023-03-21T02:17:50.301Z,26.77
2023-03-21T02:23:02.397Z,23.40
2023-03-21T02:28:00.804Z,22.85
2023-03-21T02:33:05.709Z,26.80
2023-03-21T02:38:10.114Z,23.65
2023-03-21T02:43:23.790Z,24.55
2023-03-21T02:48:33.290Z,25.50
2023-03-21T02:53:37.186Z,25.23
2023-03-21T02:58:33.239Z,21.20
2023-03-21T03:03:48.091Z,24.45
2023-03-21T03:09:01.410Z,22.88
2023-03-21T03:14:39.998Z,25.70
2023-03-21T03:19:49.557Z,24.25
2023-03-21T03:25:02.780Z,24.73
2023-03-21T03:30:00.578Z,22.35
2023-03-21T03:34:57.303Z,23.55
2023-03-21T03:40:30.961Z,22.60
2023-03-21T03:45:42.893Z,23.17
2023-03-21T03:50:54.519Z,24.77
2023-03-21T03:55:58.534Z,20.90
2023-03-21T04:00:52.447Z,20.63
2023-03-21T04:05:46.899Z,23.98
2023-03-21T04:10:42.540Z,22.67
2023-03-21T04:15:36.985Z,22.10
2023-03-21T04:20:37.589Z,20.25
2023-03-21T04:25:44.701Z,21.92
2023-03-21T04:30:49.417Z,24.15
2023-03-21T04:36:25.589Z,23.38
2023-03-21T04:41:21.427Z,23.88
2023-03-21T04:46:16.216Z,26.50
2023-03-21T04:51:09.365Z,22.48
2023-03-21T04:56:02.676Z,22.30
2023-03-21T05:00:57.696Z,24.63
2023-03-21T05:05:51.286Z,18.50
2023-03-21T05:10:46.245Z,20.90
2023-03-21T05:15:39.314Z,19.40
2023-03-21T05:20:33.376Z,18.83
2023-03-21T05:25:35.726Z,20.25
2023-03-21T05:30:35.728Z,21.42
2023-03-21T05:35:29.747Z,27.55
2023-03-21T05:40:25.047Z,22.85
2023-03-21T05:45:23.164Z,23.25
2023-03-21T05:50:18.230Z,25.05
2023-03-21T05:55:20.686Z,24.27
2023-03-21T06:00:18.584Z,29.55
2023-03-21T06:05:27.861Z,26.50
2023-03-21T06:10:22.239Z,28.50
2023-03-21T06:15:16.431Z,30.00
2023-03-21T06:20:38.250Z,23.73
2023-03-21T06:25:36.400Z,26.15
2023-03-21T06:30:29.894Z,25.15
2023-03-21T06:35:35.542Z,25.50
2023-03-21T06:40:28.389Z,29.88
2023-03-21T06:45:22.088Z,30.75
2023-03-21T06:50:16.177Z,24.80
2023-03-21T06:55:11.369Z,30.67
2023-03-21T07:00:08.473Z,26.80
2023-03-21T07:05:08.202Z,25.30
2023-03-21T07:10:02.242Z,32.50
2023-03-21T07:15:21.154Z,40.72
2023-03-21T07:20:14.672Z,28.02
2023-03-21T07:25:09.171Z,31.70
2023-03-21T07:30:08.976Z,31.42
2023-03-21T07:35:01.898Z,32.03
2023-03-21T07:39:55.753Z,28.02
2023-03-21T07:44:51.493Z,26.33
2023-03-21T07:49:44.811Z,33.90
2023-03-21T07:54:39.125Z,27.90
2023-03-21T07:59:34.004Z,27.50
2023-03-21T08:04:28.029Z,34.08
2023-03-21T08:09:22.247Z,21.92
2023-03-21T08:14:15.047Z,25.95
2023-03-21T08:19:08.144Z,25.35
2023-03-21T08:24:02.011Z,23.77
2023-03-21T08:28:55.821Z,26.52
2023-03-21T08:33:55.233Z,30.92
2023-03-21T08:38:49.283Z,30.25
2023-03-21T08:43:42.522Z,28.10
2023-03-21T08:48:35.786Z,27.48
2023-03-21T08:53:29.802Z,30.77
2023-03-21T08:58:22.531Z,27.77
2023-03-21T09:03:15.605Z,21.95
2023-03-21T09:08:09.320Z,27.42
2023-03-21T09:13:03.730Z,26.33
2023-03-21T09:17:59.570Z,22.50
2023-03-21T09:22:54.341Z,21.50
2023-03-21T09:27:46.444Z,21.02
2023-03-21T09:32:40.230Z,20.05
2023-03-21T09:37:33.964Z,20.77
2023-03-21T09:42:41.134Z,20.58
2023-03-21T09:47:53.684Z,22.08
2023-03-21T09:52:54.410Z,19.58
2023-03-21T09:58:08.786Z,25.65
2023-03-21T10:03:07.141Z,20.05
2023-03-21T10:08:25.357Z,19.60
2023-03-21T10:13:35.490Z,19.48
2023-03-21T10:18:38.257Z,17.90
2023-03-21T10:23:31.554Z,17.00
2023-03-21T10:28:39.420Z,17.50
2023-03-21T10:33:46.727Z,21.20
2023-03-21T10:43:37.763Z,14.63
2023-03-21T10:48:37.709Z,10.25
2023-03-21T10:53:33.734Z,12.27
2023-03-21T10:58:36.057Z,11.03
2023-03-21T11:03:52.467Z,16.27
2023-03-21T11:08:52.545Z,16.00
2023-03-21T11:13:46.430Z,13.63
2023-03-21T11:18:45.043Z,16.08
2023-03-21T11:23:44.316Z,18.48
2023-03-21T11:28:40.702Z,11.68
2023-03-21T11:33:41.005Z,12.82
2023-03-21T11:38:39.033Z,12.45
2023-03-21T11:43:36.825Z,13.13
2023-03-21T11:48:29.692Z,11.50
2023-03-21T11:53:40.145Z,12.63
2023-03-21T11:59:07.396Z,13.23
2023-03-21T12:04:20.087Z,14.18
2023-03-21T12:09:13.159Z,12.50
2023-03-21T12:14:20.459Z,14.95
2023-03-21T12:19:55.145Z,13.65
2023-03-21T12:25:22.640Z,14.88
2023-03-21T12:30:34.665Z,13.32
2023-03-21T12:35:42.454Z,12.40
2023-03-21T12:41:02.120Z,11.60
2023-03-21T12:46:18.283Z,12.82
2023-03-21T12:51:22.385Z,14.55
2023-03-21T12:56:28.502Z,14.10
2023-03-21T13:01:26.572Z,11.70
2023-03-21T13:06:27.051Z,9.15
2023-03-21T13:11:27.720Z,9.15
2023-03-21T13:16:50.442Z,9.90
2023-03-21T13:22:06.479Z,11.05
2023-03-21T13:27:09.859Z,12.90
2023-03-21T13:32:29.228Z,12.98
2023-03-21T13:37:22.204Z,12.45
2023-03-21T13:42:47.049Z,14.77
2023-03-21T13:47:53.213Z,15.68
2023-03-21T13:53:10.872Z,10.60
2023-03-21T13:58:25.938Z,11.63
2023-03-21T14:03:19.381Z,12.93
2023-03-21T14:08:27.940Z,14.48
2023-03-21T14:13:28.619Z,21.30
2023-03-21T14:18:53.401Z,14.30
2023-03-21T14:23:47.229Z,14.80
2023-03-21T14:28:46.661Z,14.02
2023-03-21T14:33:41.791Z,15.85
2023-03-21T14:38:38.396Z,17.10
2023-03-21T14:43:34.844Z,15.35
2023-03-21T14:48:35.304Z,15.13
2023-03-21T14:53:30.893Z,12.38
2023-03-21T14:58:23.835Z,14.00
2023-03-21T15:03:17.949Z,13.25
2023-03-21T15:08:21.196Z,14.50
2023-03-21T15:13:20.006Z,13.50
2023-03-21T15:18:16.580Z,13.05
2023-03-21T15:23:28.406Z,14.38
2023-03-21T15:28:21.969Z,20.00
2023-03-21T15:33:15.091Z,21.90
2023-03-21T15:38:08.720Z,26.00
2023-03-21T15:43:27.526Z,13.80
2023-03-21T15:48:27.434Z,12.55
2023-03-21T15:53:20.434Z,11.55
2023-03-21T15:58:16.965Z,16.35
2023-03-21T16:03:26.063Z,12.15
2023-03-21T16:08:24.434Z,12.95
2023-03-21T16:13:18.438Z,12.63
2023-03-21T16:18:17.406Z,12.75
2023-03-21T16:28:04.721Z,18.45
2023-03-21T16:32:59.282Z,15.50
2023-03-21T16:37:53.028Z,15.02
2023-03-21T16:42:47.014Z,16.98
2023-03-21T16:47:40.664Z,21.92
2023-03-21T16:52:34.689Z,18.88
2023-03-21T16:57:28.297Z,20.40
2023-03-21T17:02:21.000Z,17.50
2023-03-21T17:07:15.012Z,24.67
2023-03-21T17:12:16.339Z,19.83
2023-03-21T17:17:14.418Z,19.58
2023-03-21T17:22:08.103Z,19.15
2023-03-21T17:27:02.309Z,18.65
2023-03-21T17:31:55.921Z,21.05
2023-03-21T17:36:52.007Z,28.33
2023-03-21T17:41:44.839Z,17.38
2023-03-21T17:46:39.122Z,29.15
2023-03-21T17:51:33.574Z,23.63
2023-03-21T17:56:27.278Z,26.08
2023-03-21T18:01:21.055Z,33.65
2023-03-21T18:06:20.976Z,30.83
2023-03-21T18:11:14.594Z,42.30
2023-03-21T18:16:09.595Z,34.00
2023-03-21T18:21:03.127Z,29.45
2023-03-21T18:25:56.179Z,29.13
2023-03-21T18:31:07.358Z,43.67
2023-03-21T18:36:02.576Z,31.90
2023-03-21T18:41:00.428Z,34.10
2023-03-21T18:45:54.504Z,37.13
2023-03-21T18:50:48.720Z,31.17
2023-03-21T18:55:46.702Z,28.35
2023-03-21T19:01:02.747Z,31.63
2023-03-21T19:06:21.298Z,29.92
2023-03-21T19:11:14.163Z,34.88
2023-03-21T19:16:11.139Z,33.85
2023-03-21T19:21:06.648Z,33.27
2023-03-21T19:26:00.372Z,31.73
2023-03-21T19:30:55.768Z,33.28
2023-03-21T19:36:08.924Z,34.20
2023-03-21T19:41:05.358Z,35.42
2023-03-21T19:46:00.959Z,33.67
2023-03-21T19:51:24.735Z,36.72
2023-03-21T19:56:19.665Z,34.28
2023-03-21T20:01:15.849Z,34.90
2023-03-21T20:06:12.518Z,34.45
2023-03-21T20:11:06.440Z,34.42
2023-03-21T20:16:03.713Z,37.10
2023-03-21T20:20:58.004Z,43.78
2023-03-21T20:25:51.509Z,43.00
2023-03-21T20:30:57.508Z,37.92
2023-03-21T20:41:09.652Z,42.57
2023-03-21T20:46:08.333Z,35.60
2023-03-21T20:51:57.841Z,43.85
2023-03-21T20:56:22.434Z,39.70
2023-03-21T21:01:17.293Z,35.80
2023-03-21T21:06:18.732Z,38.30
2023-03-21T21:16:45.360Z,33.95
2023-03-21T21:21:39.378Z,29.75
2023-03-21T21:26:33.127Z,30.88
2023-03-21T21:31:28.618Z,29.95
2023-03-21T21:36:23.013Z,28.70
2023-03-21T21:41:19.841Z,35.35
2023-03-21T21:46:13.989Z,27.38
2023-03-21T21:51:08.791Z,29.73
2023-03-21T21:56:04.605Z,33.47
2023-03-21T22:01:05.370Z,25.75
2023-03-21T22:06:02.349Z,27.90
2023-03-21T22:10:55.799Z,30.80
2023-03-21T22:15:49.581Z,33.90
2023-03-21T22:20:43.148Z,33.03
2023-03-21T22:25:36.646Z,31.58
2023-03-21T22:30:30.457Z,36.58
2023-03-21T22:35:24.420Z,31.63
2023-03-21T22:40:17.826Z,31.85
2023-03-21T22:45:13.431Z,34.17
2023-03-21T22:50:08.774Z,35.90
2023-03-21T22:55:03.244Z,30.85
2023-03-21T22:59:56.879Z,29.40
2023-03-21T23:04:50.695Z,25.65
2023-03-21T23:09:44.811Z,28.13
2023-03-21T23:14:38.704Z,26.42
2023-03-21T23:19:33.109Z,29.90
2023-03-21T23:24:26.692Z,25.90
2023-03-21T23:29:19.385Z,33.88
2023-03-21T23:34:13.823Z,31.00
2023-03-21T23:39:07.541Z,32.35
2023-03-21T23:44:00.775Z,28.65
2023-03-21T23:48:54.490Z,28.10
2023-03-21T23:53:49.262Z,28.08
2023-03-21T23:58:42.539Z,32.53
